Time;durP1;ratioP1;P1;durP2;ratioP2;P2;SDS_P1;SDS_P2;PMS_P1;PMS_P2;Temp;Humidity;BMP_temperature;BMP_pressure;BME280_temperature;BME280_humidity;BME280_pressure;Samples;Min_cycle;Max_cycle;Signal;HPM_P1;HPM_P2
2022/11/30 00:01:36;;;;;;;;;;;;;;;9.22;100.00;102153.56;5257736;28;19913;-76
2022/11/30 00:04:07;;;;;;;;;;;;;;;9.19;100.00;102153.72;5257513;28;19940;-76
2022/11/30 00:06:40;;;;;;;;;;;;;;;9.14;100.00;102161.00;5258466;28;19959;-76
2022/11/30 00:09:12;;;;;;;;;;;;;;;9.14;100.00;102156.63;5259634;28;19916;-76
2022/11/30 00:11:43;;;;;;;;;;;;;;;9.13;100.00;102160.16;5257555;28;19917;-76
2022/11/30 00:14:14;;;;;;;;;;;;;;;9.14;100.00;102150.53;5259416;28;19916;-76
2022/11/30 00:16:46;;;;;;;;;;;;;;;9.13;100.00;102154.06;5258895;28;20284;-76
2022/11/30 00:19:17;;;;;;;;;;;;;;;9.13;100.00;102151.44;5258326;28;19928;-76
2022/11/30 00:21:48;;;;;;;;;;;;;;;9.13;100.00;102154.06;5240580;28;19928;-76
2022/11/30 00:24:19;;;;;;;;;;;;;;;9.13;100.00;102156.69;5240993;28;20373;-76
2022/11/30 00:26:50;;;;;;;;;;;;;;;9.12;100.00;102162.84;5258490;28;20305;-76
2022/11/30 00:29:21;;;;;;;;;;;;;;;9.13;100.00;102154.94;5257777;28;19917;-76
2022/11/30 00:31:53;;;;;;;;;;;;;;;9.14;100.00;102151.38;5258233;28;19948;-76
2022/11/30 00:34:24;;;;;;;;;;;;;;;9.15;100.00;102155.66;5240894;28;19978;-76
2022/11/30 00:36:55;;;;;;;;;;;;;;;9.17;100.00;102160.84;5257705;28;20411;-76
2022/11/30 00:39:26;;;;;;;;;;;;;;;9.18;100.00;102159.91;5259280;28;20250;-76
2022/11/30 00:41:57;;;;;;;;;;;;;;;9.17;100.00;102153.00;5259059;28;19916;-76
2022/11/30 00:44:28;;;;;;;;;;;;;;;9.17;100.00;102155.59;5287976;28;19951;-76
2022/11/30 00:47:00;;;;;;;;;;;;;;;9.18;100.00;102152.03;5285934;28;19946;-76
2022/11/30 00:49:32;;;;;;;;;;;;;;;9.18;100.00;102159.91;5271096;28;19919;-76
2022/11/30 00:52:04;;;;;;;;;;;;;;;9.18;100.00;102165.97;5284464;28;20372;-76
2022/11/30 00:54:35;;;;;;;;;;;;;;;9.18;100.00;102167.72;5282610;28;19951;-76
2022/11/30 00:57:06;;;;;;;;;;;;;;;9.17;100.00;102160.84;5285410;28;19916;-76
2022/11/30 00:59:37;;;;;;;;;;;;;;;9.16;100.00;102165.19;5288237;28;19912;-76
2022/11/30 01:02:08;;;;;;;;;;;;;;;9.15;100.00;102168.75;5286893;28;19920;-76
2022/11/30 01:04:40;;;;;;;;;;;;;;;9.17;100.00;102171.28;5288204;28;20087;-76
2022/11/30 01:07:11;;;;;;;;;;;;;;;9.19;100.00;102169.41;5289541;28;19920;-76
2022/11/30 01:09:42;;;;;;;;;;;;;;;9.23;100.00;102165.69;5292151;28;19916;-76
2022/11/30 01:12:13;;;;;;;;;;;;;;;9.22;100.00;102169.25;5266308;28;19916;-76
2022/11/30 01:14:44;;;;;;;;;;;;;;;9.23;100.00;102176.97;5290151;28;19916;-76
2022/11/30 01:17:15;;;;;;;;;;;;;;;9.24;100.00;102172.59;5290241;28;20003;-76
2022/11/30 01:19:47;;;;;;;;;;;;;;;9.23;100.00;102169.13;5287443;28;20390;-76
2022/11/30 01:22:18;;;;;;;;;;;;;;;9.24;100.00;102175.22;5287185;28;19913;-76
2022/11/30 01:24:49;;;;;;;;;;;;;;;9.25;100.00;102171.69;5287134;28;20144;-76
2022/11/30 01:27:20;;;;;;;;;;;;;;;9.25;100.00;102174.28;5287023;28;20202;-76
2022/11/30 01:29:51;;;;;;;;;;;;;;;9.24;100.00;102168.22;5284997;28;20565;-76
2022/11/30 01:32:23;;;;;;;;;;;;;;;9.24;100.00;102177.81;5283930;28;20048;-76
2022/11/30 01:34:54;;;;;;;;;;;;;;;9.25;100.00;102175.13;5285774;28;19924;-76
2022/11/30 01:37:27;;;;;;;;;;;;;;;9.27;100.00;102173.25;5286781;28;19959;-76
2022/11/30 01:39:58;;;;;;;;;;;;;;;9.30;100.00;102167.00;5292398;28;19919;-76
2022/11/30 01:42:31;;;;;;;;;;;;;;;9.31;100.00;102173.09;5283408;28;19916;-76
2022/11/30 01:45:03;;;;;;;;;;;;;;;9.30;100.00;102169.63;5285160;28;19912;-76
2022/11/30 01:47:40;;;;;;;;;;;;;;;9.31;100.00;102160.00;5285045;28;20384;-76
2022/11/30 01:50:13;;;;;;;;;;;;;;;9.32;100.00;102169.53;5286798;28;19916;-76
2022/11/30 01:52:47;;;;;;;;;;;;;;;9.32;100.00;102175.63;5287492;28;19924;-76
2022/11/30 01:55:18;;;;;;;;;;;;;;;9.33;100.00;102179.91;5287433;28;19912;-76
2022/11/30 01:57:52;;;;;;;;;;;;;;;9.23;100.00;102182.22;5290004;28;20399;-76
2022/11/30 02:00:23;;;;;;;;;;;;;;;9.20;100.00;102185.00;5285457;28;20293;-76
2022/11/30 02:02:58;;;;;;;;;;;;;;;9.19;100.00;102193.78;5287680;28;19924;-76
2022/11/30 02:05:30;;;;;;;;;;;;;;;9.20;100.00;102197.22;5286618;28;20258;-76
2022/11/30 02:08:01;;;;;;;;;;;;;;;9.23;100.00;102195.28;5286733;28;19919;-76
2022/11/30 02:10:34;;;;;;;;;;;;;;;9.23;100.00;102192.66;5285458;28;19920;-76
2022/11/30 02:13:14;;;;;;;;;;;;;;;9.22;100.00;102195.38;5286692;28;19912;-76
2022/11/30 02:15:56;;;;;;;;;;;;;;;9.22;100.00;102198.00;5280455;28;19916;-76
2022/11/30 02:18:46;;;;;;;;;;;;;;;9.20;100.00;102187.63;5277747;28;19922;-76
2022/11/30 02:21:20;;;;;;;;;;;;;;;9.23;100.00;102191.84;5283730;28;20007;-76
2022/11/30 02:24:24;;;;;;;;;;;;;;;9.23;100.00;102191.84;5265243;28;19918;-76
2022/11/30 02:27:01;;;;;;;;;;;;;;;9.25;100.00;102182.16;5246422;28;19970;-76
2022/11/30 02:29:32;;;;;;;;;;;;;;;9.26;100.00;102187.28;5284660;28;19917;-76
2022/11/30 02:32:03;;;;;;;;;;;;;;;9.26;100.00;102187.28;5280138;28;19913;-76
2022/11/30 02:34:36;;;;;;;;;;;;;;;9.27;100.00;102188.09;5285910;28;19923;-76
2022/11/30 02:37:08;;;;;;;;;;;;;;;9.29;100.00;102185.44;5287865;28;19912;-76
2022/11/30 02:39:39;;;;;;;;;;;;;;;9.30;100.00;102189.72;5287593;28;20682;-76
2022/11/30 02:42:12;;;;;;;;;;;;;;;9.30;100.00;102192.34;5284755;28;19954;-76
2022/11/30 02:44:46;;;;;;;;;;;;;;;9.30;100.00;102185.31;5281568;28;19921;-76
2022/11/30 02:47:22;;;;;;;;;;;;;;;9.30;100.00;102195.78;5284999;28;19924;-76
2022/11/30 02:50:13;;;;;;;;;;;;;;;9.31;100.00;102200.06;5280811;28;19920;-76
2022/11/30 02:52:45;;;;;;;;;;;;;;;9.31;100.00;102201.84;5283167;28;19982;-76
2022/11/30 02:55:17;;;;;;;;;;;;;;;9.30;100.00;102201.00;5286000;28;19923;-76
2022/11/30 02:57:49;;;;;;;;;;;;;;;9.32;100.00;102206.16;5284902;28;19998;-76
2022/11/30 03:00:20;;;;;;;;;;;;;;;9.32;100.00;102208.75;5284399;28;20031;-76
2022/11/30 03:02:51;;;;;;;;;;;;;;;9.38;100.00;102206.63;5287310;28;19919;-76
2022/11/30 03:05:22;;;;;;;;;;;;;;;9.40;100.00;102201.34;5287130;28;20406;-76
2022/11/30 03:07:54;;;;;;;;;;;;;;;9.41;100.00;102208.25;5284477;28;19916;-76
2022/11/30 03:10:25;;;;;;;;;;;;;;;9.43;100.00;102202.00;5283682;28;19919;-76
2022/11/30 03:12:57;;;;;;;;;;;;;;;9.41;100.00;102211.69;5283756;28;19917;-76
2022/11/30 03:15:28;;;;;;;;;;;;;;;9.33;100.00;102206.06;5268580;28;19923;-76
2022/11/30 03:18:00;;;;;;;;;;;;;;;9.30;100.00;102203.63;5286565;28;19920;-76
2022/11/30 03:20:32;;;;;;;;;;;;;;;9.29;100.00;102207.19;5282542;28;19973;-76
2022/11/30 03:23:03;;;;;;;;;;;;;;;9.27;100.00;102199.41;5285363;28;19916;-76
2022/11/30 03:25:34;;;;;;;;;;;;;;;9.36;100.00;102205.91;5288326;28;19920;-76
2022/11/30 03:28:05;;;;;;;;;;;;;;;9.38;100.00;102203.19;5280790;28;19967;-76
2022/11/30 03:30:36;;;;;;;;;;;;;;;9.38;100.00;102203.19;5286842;28;19916;-76
2022/11/30 03:33:07;;;;;;;;;;;;;;;9.37;100.00;102204.97;5283468;28;19912;-76
2022/11/30 03:35:39;;;;;;;;;;;;;;;9.37;100.00;102204.13;5287127;28;19916;-76
2022/11/30 03:38:10;;;;;;;;;;;;;;;9.35;100.00;102206.81;5283393;28;20018;-76
2022/11/30 03:40:41;;;;;;;;;;;;;;;9.35;100.00;102205.97;5267884;28;19916;-76
2022/11/30 03:43:12;;;;;;;;;;;;;;;9.25;100.00;102203.06;5283019;28;20330;-76
2022/11/30 03:45:44;;;;;;;;;;;;;;;9.20;100.00;102195.47;5269115;28;19927;-76
2022/11/30 03:48:15;;;;;;;;;;;;;;;9.19;100.00;102201.63;5283971;28;19917;-76
2022/11/30 03:50:48;;;;;;;;;;;;;;;9.16;100.00;102204.41;5268100;28;19916;-76
2022/11/30 03:53:20;;;;;;;;;;;;;;;9.15;100.00;102201.91;5284161;28;19908;-76
2022/11/30 03:55:56;;;;;;;;;;;;;;;9.15;100.00;102204.50;5287392;28;19916;-76
2022/11/30 03:58:27;;;;;;;;;;;;;;;9.14;100.00;102208.91;5291234;28;19920;-76
2022/11/30 04:01:10;;;;;;;;;;;;;;;9.13;100.00;102206.34;5289114;28;19912;-76
2022/11/30 04:03:41;;;;;;;;;;;;;;;9.12;100.00;102210.75;5283385;28;19913;-76
2022/11/30 04:06:13;;;;;;;;;;;;;;;9.12;100.00;102207.28;5289686;28;19923;-76
2022/11/30 04:08:44;;;;;;;;;;;;;;;9.12;100.00;102204.69;5288287;28;20396;-76
2022/11/30 04:11:15;;;;;;;;;;;;;;;9.09;100.00;102202.22;5291291;28;19919;-76
2022/11/30 04:13:47;;;;;;;;;;;;;;;9.12;100.00;102207.28;5271822;28;19917;-76
2022/11/30 04:16:18;;;;;;;;;;;;;;;9.13;100.00;102206.34;5287169;28;20334;-76
2022/11/30 04:18:49;;;;;;;;;;;;;;;9.13;100.00;102212.47;5290066;28;19920;-76
2022/11/30 04:21:20;;;;;;;;;;;;;;;9.11;100.00;102214.28;5286714;28;19962;-76
2022/11/30 04:23:51;;;;;;;;;;;;;;;9.05;100.00;102211.19;5287891;28;20408;-76
2022/11/30 04:26:22;;;;;;;;;;;;;;;9.00;100.00;102209.66;5284900;28;20360;-76
2022/11/30 04:28:54;;;;;;;;;;;;;;;9.02;100.00;102213.06;5290435;28;19912;-76
2022/11/30 04:31:25;;;;;;;;;;;;;;;9.05;100.00;102209.41;5286505;28;19993;-76
2022/11/30 04:33:56;;;;;;;;;;;;;;;9.08;100.00;102219.69;5288079;28;19925;-76
2022/11/30 04:36:27;;;;;;;;;;;;;;;9.08;100.00;102211.84;5288919;28;20403;-76
2022/11/30 04:38:58;;;;;;;;;;;;;;;9.08;100.00;102224.09;5292091;28;19993;-76
2022/11/30 04:41:30;;;;;;;;;;;;;;;9.06;100.00;102215.50;5292061;28;20711;-76
2022/11/30 04:44:01;;;;;;;;;;;;;;;9.06;100.00;102216.34;5318824;22;20007;-72
2022/11/30 04:46:32;;;;;;;;;;;;;;;9.02;100.00;102215.66;5320085;27;19969;-71
2022/11/30 04:49:03;;;;;;;;;;;;;;;9.02;100.00;102220.06;5322296;27;19961;-72
2022/11/30 04:51:35;;;;;;;;;;;;;;;9.02;100.00;102227.91;5302807;28;19915;-71
2022/11/30 04:54:06;;;;;;;;;;;;;;;9.01;100.00;102219.19;5301810;28;20428;-71
2022/11/30 04:56:37;;;;;;;;;;;;;;;9.02;100.00;102220.91;5301433;28;19915;-71
2022/11/30 04:59:08;;;;;;;;;;;;;;;9.04;100.00;102223.41;5300738;28;19919;-72
2022/11/30 05:01:39;;;;;;;;;;;;;;;9.01;100.00;102220.97;5295987;28;19920;-71
2022/11/30 05:04:11;;;;;;;;;;;;;;;8.98;100.00;102218.56;5281910;28;19915;-71
2022/11/30 05:06:42;;;;;;;;;;;;;;;8.94;100.00;102215.25;5298704;28;20300;-72
2022/11/30 05:09:13;;;;;;;;;;;;;;;8.92;100.00;102224.09;5300105;28;20319;-72
2022/11/30 05:11:45;;;;;;;;;;;;;;;8.90;100.00;102213.75;5299871;28;19912;-71
2022/11/30 05:14:17;;;;;;;;;;;;;;;8.88;100.00;102222.59;5281214;28;19920;-71
2022/11/30 05:16:48;;;;;;;;;;;;;;;8.87;100.00;102220.91;5299518;28;20288;-71
2022/11/30 05:19:19;;;;;;;;;;;;;;;8.83;100.00;102229.84;5300027;28;19950;-71
2022/11/30 05:21:50;;;;;;;;;;;;;;;8.78;100.00;102228.31;5299760;28;19922;-73
2022/11/30 05:24:21;;;;;;;;;;;;;;;8.77;100.00;102225.78;5300024;28;19912;-71
2022/11/30 05:26:52;;;;;;;;;;;;;;;8.73;100.00;102226.91;5299270;28;19922;-71
2022/11/30 05:29:23;;;;;;;;;;;;;;;8.72;100.00;102233.06;5300030;28;20384;-73
2022/11/30 05:31:55;;;;;;;;;;;;;;;8.68;100.00;102229.75;5299403;28;20026;-71
2022/11/30 05:34:26;;;;;;;;;;;;;;;8.66;100.00;102226.38;5299723;28;19912;-71
2022/11/30 05:36:59;;;;;;;;;;;;;;;8.64;100.00;102232.63;5298818;28;19922;-72
2022/11/30 05:39:30;;;;;;;;;;;;;;;8.60;100.00;102233.69;5299583;28;20003;-72
2022/11/30 05:42:01;;;;;;;;;;;;;;;8.59;100.00;102242.47;5291135;28;20357;-71
2022/11/30 05:44:32;;;;;;;;;;;;;;;8.57;100.00;102245.19;5281269;28;19919;-71
2022/11/30 05:47:03;;;;;;;;;;;;;;;8.55;100.00;102238.34;5299624;28;19916;-72
2022/11/30 05:49:35;;;;;;;;;;;;;;;8.54;100.00;102245.34;5299166;28;20389;-71
2022/11/30 05:52:06;;;;;;;;;;;;;;;8.53;100.00;102239.28;5299055;28;20006;-71
2022/11/30 05:54:37;;;;;;;;;;;;;;;8.53;100.00;102254.09;5297900;28;20391;-71
2022/11/30 05:57:08;;;;;;;;;;;;;;;8.52;100.00;102258.50;5299604;28;19935;-71
2022/11/30 05:59:39;;;;;;;;;;;;;;;8.52;100.00;102252.41;5299506;28;20001;-71
2022/11/30 06:02:11;;;;;;;;;;;;;;;8.53;100.00;102248.88;5298627;28;19915;-73
2022/11/30 06:04:42;;;;;;;;;;;;;;;8.53;100.00;102268.00;5297227;28;19918;-71
2022/11/30 06:07:13;;;;;;;;;;;;;;;8.54;100.00;102268.84;5298488;28;19920;-71
2022/11/30 06:09:44;;;;;;;;;;;;;;;8.55;100.00;102264.47;5299077;28;19926;-71
2022/11/30 06:12:15;;;;;;;;;;;;;;;8.55;100.00;102265.31;5297223;28;19912;-71
2022/11/30 06:14:46;;;;;;;;;;;;;;;8.53;100.00;102261.94;5297112;28;19918;-71
2022/11/30 06:17:17;;;;;;;;;;;;;;;8.51;100.00;102262.00;5299743;28;19911;-71
2022/11/30 06:19:49;;;;;;;;;;;;;;;8.49;100.00;102263.88;5299347;28;20467;-71
2022/11/30 06:22:20;;;;;;;;;;;;;;;8.45;100.00;102257.13;5297803;28;20097;-71
2022/11/30 06:24:51;;;;;;;;;;;;;;;8.41;100.00;102266.06;5295945;28;19916;-72
2022/11/30 06:27:22;;;;;;;;;;;;;;;8.39;100.00;102260.06;5295363;28;19912;-72
2022/11/30 06:29:53;;;;;;;;;;;;;;;8.40;100.00;102263.50;5296784;28;19920;-72
2022/11/30 06:32:24;;;;;;;;;;;;;;;8.40;100.00;102264.34;5298404;28;20394;-71
2022/11/30 06:34:56;;;;;;;;;;;;;;;8.41;100.00;102268.66;5297613;28;19933;-71
2022/11/30 06:37:27;;;;;;;;;;;;;;;8.42;100.00;102270.34;5291676;28;19926;-72
2022/11/30 06:39:58;;;;;;;;;;;;;;;8.44;100.00;102267.63;5298825;28;19965;-73
2022/11/30 06:42:30;;;;;;;;;;;;;;;8.44;100.00;102268.47;5297236;28;19954;-71
2022/11/30 06:45:01;;;;;;;;;;;;;;;8.43;100.00;102272.03;5297364;28;19911;-72
2022/11/30 06:47:33;;;;;;;;;;;;;;;8.47;100.00;102267.47;5297832;28;19915;-71
2022/11/30 06:50:04;;;;;;;;;;;;;;;8.48;100.00;102263.94;5298631;28;19973;-72
2022/11/30 06:52:36;;;;;;;;;;;;;;;8.48;100.00;102275.22;5298675;28;19915;-71
2022/11/30 06:55:07;;;;;;;;;;;;;;;8.48;100.00;102275.22;5298887;28;19919;-71
2022/11/30 06:57:38;;;;;;;;;;;;;;;8.48;100.00;102285.66;5297430;28;20272;-71
2022/11/30 07:00:11;;;;;;;;;;;;;;;8.46;100.00;102281.47;5299200;28;19955;-71
2022/11/30 07:02:42;;;;;;;;;;;;;;;8.49;100.00;102283.94;5298568;28;20350;-71
2022/11/30 07:05:13;;;;;;;;;;;;;;;8.48;100.00;102284.84;5289129;28;19920;-71
2022/11/30 07:07:45;;;;;;;;;;;;;;;8.50;100.00;102286.44;5299066;28;19937;-73
2022/11/30 07:10:16;;;;;;;;;;;;;;;8.48;100.00;102288.28;5297978;28;19974;-71
2022/11/30 07:12:47;;;;;;;;;;;;;;;8.48;100.00;102285.66;5296266;28;20372;-72
2022/11/30 07:15:18;;;;;;;;;;;;;;;8.49;100.00;102287.38;5295343;28;20391;-71
2022/11/30 07:17:50;;;;;;;;;;;;;;;8.52;100.00;102292.44;5299116;28;19957;-71
2022/11/30 07:20:21;;;;;;;;;;;;;;;8.51;100.00;102295.97;5296460;28;20299;-72
2022/11/30 07:22:55;;;;;;;;;;;;;;;8.49;100.00;102292.59;5299090;28;20655;-71
2022/11/30 07:28:15;;;;;;;;;;;;;;;8.52;100.00;102299.41;5298381;28;19923;-72
2022/11/30 07:30:47;;;;;;;;;;;;;;;8.51;100.00;102313.41;5301393;28;19920;-71
2022/11/30 07:33:18;;;;;;;;;;;;;;;8.55;100.00;102319.31;5301719;28;19916;-74
2022/11/30 07:35:51;;;;;;;;;;;;;;;8.58;100.00;102308.72;5301505;28;20269;-71
2022/11/30 07:38:22;;;;;;;;;;;;;;;8.59;100.00;102313.00;5301537;28;19912;-71
2022/11/30 07:40:53;;;;;;;;;;;;;;;8.61;100.00;102311.16;5300888;28;19938;-71
2022/11/30 07:43:26;;;;;;;;;;;;;;;8.58;100.00;102314.78;5301882;28;19916;-74
2022/11/30 07:45:57;;;;;;;;;;;;;;;8.58;100.00;102317.38;5283909;28;20422;-71
2022/11/30 07:48:29;;;;;;;;;;;;;;;8.57;100.00;102330.53;5300527;28;19912;-72
2022/11/30 07:51:01;;;;;;;;;;;;;;;8.57;100.00;102330.53;5300431;28;19958;-70
2022/11/30 07:53:32;;;;;;;;;;;;;;;8.58;100.00;102334.84;5301872;28;20396;-71
2022/11/30 07:56:05;;;;;;;;;;;;;;;8.58;100.00;102340.91;5302704;28;19951;-71
2022/11/30 07:58:36;;;;;;;;;;;;;;;8.59;100.00;102336.50;5301120;28;19969;-71
2022/11/30 08:01:09;;;;;;;;;;;;;;;8.60;100.00;102327.75;5292587;28;20374;-72
2022/11/30 08:03:40;;;;;;;;;;;;;;;8.61;100.00;102326.84;5301921;28;20031;-71
2022/11/30 08:06:13;;;;;;;;;;;;;;;8.62;100.00;102331.13;5302402;28;20385;-71
2022/11/30 08:08:44;;;;;;;;;;;;;;;8.62;100.00;102331.97;5300969;28;19919;-71
2022/11/30 08:11:17;;;;;;;;;;;;;;;8.60;100.00;102333.84;5299545;28;19923;-73
2022/11/30 08:13:49;;;;;;;;;;;;;;;8.62;100.00;102338.97;5302089;28;19922;-72
2022/11/30 08:16:22;;;;;;;;;;;;;;;8.62;100.00;102337.19;5301972;28;19912;-71
2022/11/30 08:18:56;;;;;;;;;;;;;;;8.62;100.00;102346.81;5291852;28;20003;-71
2022/11/30 08:21:30;;;;;;;;;;;;;;;8.65;100.00;102346.66;5297130;28;20289;-71
2022/11/30 08:24:01;;;;;;;;;;;;;;;8.68;100.00;102349.09;5281404;28;19923;-72
2022/11/30 08:26:33;;;;;;;;;;;;;;;8.67;100.00;102347.41;5293964;28;19916;-71
2022/11/30 08:29:04;;;;;;;;;;;;;;;8.68;100.00;102351.72;5290709;28;20384;-72
2022/11/30 08:31:35;;;;;;;;;;;;;;;8.68;100.00;102352.56;5301056;28;19919;-72
2022/11/30 08:34:09;;;;;;;;;;;;;;;8.69;100.00;102354.25;5300698;28;19962;-72
2022/11/30 08:36:40;;;;;;;;;;;;;;;8.68;100.00;102360.41;5301493;28;19943;-71
2022/11/30 08:39:11;;;;;;;;;;;;;;;8.69;100.00;102362.09;5281941;28;19947;-73
2022/11/30 08:41:43;;;;;;;;;;;;;;;8.70;100.00;102361.16;5299782;28;21010;-71
2022/11/30 08:44:14;;;;;;;;;;;;;;;8.69;100.00;102369.06;5300372;28;20280;-71
2022/11/30 08:46:45;;;;;;;;;;;;;;;8.68;100.00;102367.41;5299170;28;19984;-71
2022/11/30 08:49:17;;;;;;;;;;;;;;;8.69;100.00;102372.53;5300700;28;19927;-71
2022/11/30 08:51:49;;;;;;;;;;;;;;;8.70;100.00;102371.59;5300116;28;19912;-72
2022/11/30 08:54:20;;;;;;;;;;;;;;;8.69;100.00;102382.16;5299107;28;20395;-71
2022/11/30 08:56:51;;;;;;;;;;;;;;;8.67;100.00;102381.38;5301095;28;20345;-71
2022/11/30 08:59:22;;;;;;;;;;;;;;;8.67;100.00;102371.75;5300628;28;19966;-70
2022/11/30 09:01:54;;;;;;;;;;;;;;;8.70;100.00;102375.97;5299815;28;19927;-73
2022/11/30 09:04:25;;;;;;;;;;;;;;;8.72;100.00;102367.16;5300680;28;19931;-70
2022/11/30 09:06:57;;;;;;;;;;;;;;;8.74;100.00;102370.50;5300622;28;19912;-71
2022/11/30 09:09:28;;;;;;;;;;;;;;;8.78;100.00;102386.88;5299527;28;19994;-71
2022/11/30 09:12:00;;;;;;;;;;;;;;;8.79;100.00;102385.97;5300700;28;19942;-70
2022/11/30 09:14:31;;;;;;;;;;;;;;;8.79;100.00;102385.97;5300744;28;19915;-71
2022/11/30 09:17:03;;;;;;;;;;;;;;;8.79;100.00;102385.97;5300404;28;19919;-70
2022/11/30 09:19:34;;;;;;;;;;;;;;;8.82;100.00;102390.16;5299846;28;19916;-70
2022/11/30 09:22:05;;;;;;;;;;;;;;;8.84;100.00;102389.19;5299951;28;19916;-71
2022/11/30 09:24:37;;;;;;;;;;;;;;;8.87;100.00;102391.63;5294096;28;19919;-71
2022/11/30 09:27:08;;;;;;;;;;;;;;;8.89;100.00;102384.53;5299947;28;19923;-70
2022/11/30 09:29:39;;;;;;;;;;;;;;;8.93;100.00;102391.28;5300140;28;19912;-73
2022/11/30 09:32:10;;;;;;;;;;;;;;;8.95;100.00;102394.69;5299912;28;20010;-70
2022/11/30 09:34:42;;;;;;;;;;;;;;;8.95;100.00;102396.47;5297726;28;19920;-70
2022/11/30 09:37:14;;;;;;;;;;;;;;;8.97;100.00;102398.03;5300578;28;19912;-70
2022/11/30 09:39:45;;;;;;;;;;;;;;;8.99;100.00;102396.19;5299002;28;19908;-72
2022/11/30 09:42:25;;;;;;;;;;;;;;;9.05;100.00;102394.19;5298247;28;19908;-72
2022/11/30 09:44:56;;;;;;;;;;;;;;;9.08;100.00;102400.09;5299716;28;20288;-70
2022/11/30 09:47:46;;;;;;;;;;;;;;;9.09;100.00;102393.09;5281821;28;19912;-71
2022/11/30 09:50:20;;;;;;;;;;;;;;;9.10;100.00;102397.41;5299465;28;19919;-70
2022/11/30 09:52:53;;;;;;;;;;;;;;;9.11;100.00;102388.63;5290201;28;19924;-70
2022/11/30 09:55:30;;;;;;;;;;;;;;;9.12;100.00;102387.69;5299359;28;19920;-73
2022/11/30 09:58:04;;;;;;;;;;;;;;;9.13;100.00;102395.47;5299860;28;19923;-70
2022/11/30 10:00:35;;;;;;;;;;;;;;;9.14;100.00;102391.94;5298360;28;20296;-70
2022/11/30 10:03:07;;;;;;;;;;;;;;;9.17;100.00;102391.78;5298195;28;19923;-73
2022/11/30 10:05:41;;;;;;;;;;;;;;;9.18;100.00;102387.38;5299586;28;19943;-72
2022/11/30 10:08:18;;;;;;;;;;;;;;;9.23;100.00;102395.81;5298299;28;19912;-71
2022/11/30 10:11:16;;;;;;;;;;;;;;;9.26;100.00;102388.63;5300235;28;19923;-70
2022/11/30 10:13:56;;;;;;;;;;;;;;;9.31;100.00;102384.94;5299242;28;19933;-70
2022/11/30 10:16:50;;;;;;;;;;;;;;;9.33;100.00;102386.53;5299306;28;19912;-70
2022/11/30 10:19:31;;;;;;;;;;;;;;;9.36;100.00;102386.38;5288617;28;19969;-70
2022/11/30 10:22:21;;;;;;;;;;;;;;;9.40;100.00;102387.06;5297708;28;20425;-70
2022/11/30 10:25:12;;;;;;;;;;;;;;;9.47;100.00;102384.00;5299263;28;19912;-70
2022/11/30 10:27:43;;;;;;;;;;;;;;;9.53;100.00;102379.34;5299889;28;20002;-70
2022/11/30 10:30:16;;;;;;;;;;;;;;;9.61;100.00;102378.00;5297659;28;20002;-70
2022/11/30 10:32:53;;;;;;;;;;;;;;;9.68;100.00;102375.88;5298969;28;19920;-73
2022/11/30 10:35:35;;;;;;;;;;;;;;;9.77;100.00;102375.34;5299189;28;19908;-73
2022/11/30 10:38:16;;;;;;;;;;;;;;;9.85;100.00;102378.41;5298842;28;20336;-70
2022/11/30 10:40:47;;;;;;;;;;;;;;;9.94;100.00;102371.78;5296209;28;19916;-70
2022/11/30 10:43:23;;;;;;;;;;;;;;;10.01;100.00;102372.28;5296813;28;19977;-71
2022/11/30 10:45:54;;;;;;;;;;;;;;;10.06;100.00;102367.59;5298150;28;20945;-71
2022/11/30 10:48:31;;;;;;;;;;;;;;;10.10;100.00;102364.72;5299076;28;19923;-72
2022/11/30 10:51:03;;;;;;;;;;;;;;;10.15;100.00;102369.66;5298926;28;20011;-71
2022/11/30 10:53:35;;;;;;;;;;;;;;;10.19;100.00;102363.31;5298559;28;20010;-71
2022/11/30 10:56:09;;;;;;;;;;;;;;;10.23;100.00;102362.22;5298939;28;19916;-71
2022/11/30 10:58:55;;;;;;;;;;;;;;;10.31;100.00;102364.44;5299280;28;19908;-70
2022/11/30 11:01:28;;;;;;;;;;;;;;;10.39;100.00;102365.66;5297149;28;19923;-70
2022/11/30 11:04:05;;;;;;;;;;;;;;;10.46;100.00;102359.09;5295796;28;20288;-71
2022/11/30 11:06:57;;;;;;;;;;;;;;;10.54;100.00;102356.03;5298560;28;19973;-71
2022/11/30 11:09:28;;;;;;;;;;;;;;;10.59;100.00;102360.97;5299096;28;19970;-70
2022/11/30 11:12:00;;;;;;;;;;;;;;;10.57;100.00;102355.84;5297438;28;19908;-73
2022/11/30 11:14:32;;;;;;;;;;;;;;;10.65;100.00;102353.59;5293191;28;19947;-71
2022/11/30 11:17:05;;;;;;;;;;;;;;;10.72;100.00;102364.56;5296022;28;19970;-71
2022/11/30 11:19:38;;;;;;;;;;;;;;;10.75;100.00;102355.63;5298262;28;19915;-70
2022/11/30 11:22:20;;;;;;;;;;;;;;;10.72;100.00;102354.06;5296889;28;19916;-71
2022/11/30 11:25:10;;;;;;;;;;;;;;;10.69;100.00;102357.72;5298292;28;19964;-73
2022/11/30 11:27:41;;;;;;;;;;;;;;;10.63;100.00;102350.22;5298125;28;20372;-71
2022/11/30 11:30:25;;;;;;;;;;;;;;;10.64;100.00;102351.88;5298523;28;19985;-70
2022/11/30 11:33:16;;;;;;;;;;;;;;;10.64;100.00;102348.44;5297563;28;19918;-71
2022/11/30 11:35:52;;;;;;;;;;;;;;;10.63;100.00;102349.38;5298259;28;19951;-71
2022/11/30 11:38:28;;;;;;;;;;;;;;;10.63;100.00;102350.22;5297881;28;19912;-70
2022/11/30 11:41:10;;;;;;;;;;;;;;;10.64;100.00;102351.06;5294262;28;19915;-71
2022/11/30 11:43:59;;;;;;;;;;;;;;;10.62;100.00;102352.94;5292480;28;19924;-72
2022/11/30 11:46:31;;;;;;;;;;;;;;;10.61;100.00;102346.88;5299011;28;19951;-71
2022/11/30 11:49:04;;;;;;;;;;;;;;;10.62;100.00;102347.69;5297417;28;20479;-70
2022/11/30 11:51:36;;;;;;;;;;;;;;;10.62;100.00;102347.69;5297878;28;19912;-70
2022/11/30 11:54:28;;;;;;;;;;;;;;;10.61;100.00;102351.25;5297801;28;19962;-71
2022/11/30 11:57:00;;;;;;;;;;;;;;;10.61;100.00;102353.88;5266486;28;19919;-73
2022/11/30 11:59:50;;;;;;;;;;;;;;;10.61;100.00;102353.88;5297277;28;20368;-70
2022/11/30 12:02:33;;;;;;;;;;;;;;;10.60;100.00;102346.94;5297825;28;20353;-71
2022/11/30 12:05:13;;;;;;;;;;;;;;;10.55;100.00;102352.47;5296563;28;19915;-71
2022/11/30 12:07:49;;;;;;;;;;;;;;;10.52;100.00;102351.81;5279690;28;19915;-70
2022/11/30 12:10:49;;;;;;;;;;;;;;;10.51;100.00;102345.72;5289147;28;19916;-69
2022/11/30 12:13:22;;;;;;;;;;;;;;;10.50;100.00;102353.69;5278954;28;19930;-68
2022/11/30 12:16:05;;;;;;;;;;;;;;;10.50;100.00;102348.44;5300026;28;20053;-69
2022/11/30 12:18:43;;;;;;;;;;;;;;;10.40;100.00;102350.78;5302263;28;19919;-71
2022/11/30 12:21:15;;;;;;;;;;;;;;;10.37;100.00;102351.78;5300687;28;19916;-68
2022/11/30 12:23:53;;;;;;;;;;;;;;;10.38;100.00;102352.63;5302056;28;19978;-71
2022/11/30 12:26:37;;;;;;;;;;;;;;;10.37;100.00;102349.16;5301442;28;19912;-72
2022/11/30 12:29:08;;;;;;;;;;;;;;;10.41;100.00;102353.28;5300297;28;20343;-70
2022/11/30 12:31:51;;;;;;;;;;;;;;;10.43;100.00;102346.19;5301654;28;19955;-70
2022/11/30 12:34:32;;;;;;;;;;;;;;;10.41;100.00;102349.81;5301680;28;19915;-71
2022/11/30 12:37:10;;;;;;;;;;;;;;;10.42;100.00;102352.38;5292343;28;19922;-70
2022/11/30 12:39:52;;;;;;;;;;;;;;;10.41;100.00;102349.81;5302065;28;19927;-70
2022/11/30 12:42:34;;;;;;;;;;;;;;;10.41;100.00;102361.13;5299194;28;19916;-70
2022/11/30 12:45:17;;;;;;;;;;;;;;;10.43;100.00;102361.91;5301489;28;19916;-71
2022/11/30 12:47:57;;;;;;;;;;;;;;;10.43;100.00;102361.91;5302219;28;19938;-71
2022/11/30 12:50:28;;;;;;;;;;;;;;;10.45;100.00;102364.41;5299163;28;20529;-70
2022/11/30 12:53:11;;;;;;;;;;;;;;;10.46;100.00;102353.88;5301118;28;19912;-70
2022/11/30 12:55:42;;;;;;;;;;;;;;;10.46;100.00;102356.50;5301292;28;19951;-70
2022/11/30 12:58:17;;;;;;;;;;;;;;;10.48;100.00;102353.75;5299498;28;19959;-71
2022/11/30 13:01:08;;;;;;;;;;;;;;;10.47;100.00;102358.16;5300631;28;19961;-70
2022/11/30 13:03:45;;;;;;;;;;;;;;;10.46;100.00;102366.97;5293522;28;19913;-72
2022/11/30 13:06:42;;;;;;;;;;;;;;;10.42;100.00;102356.78;5300464;28;19916;-71
2022/11/30 13:09:14;;;;;;;;;;;;;;;10.41;100.00;102368.16;5296349;28;20022;-70
2022/11/30 13:11:48;;;;;;;;;;;;;;;10.38;100.00;102370.97;5299692;28;20366;-70